Řízení letového provozu České republiky
Letiste: LKTB Aktualizace: 22.07.2019 13:30:26  UTC
 METAR LKTB 22.07. 13:30 ...
METAR LKTB 221330Z 09010KT CAVOK 27/15 Q1022 NOSIG RMK REG QNH 1020=
 TAF LKTB 22.07. 11:00 ...
TAF LKTB 221100Z 2212/2318 VRB02KT CAVOK      TEMPO 2212/2218 25008KT 8000 -SHRA SCT040TCU      BECMG 2306/2309 34010KT=